WetterOnline ( https://www.wetteronline.de )

Wetter aktuell Arnsberg

Aktuelles Wetter: Werl (84m)

6-stündlich | Neueste Meldungen
Ortszeit Temperatur Wetter
Mi, 25.11. 1:00 4.1° C bedeckt
Di, 24.11. 19:00 5.1° C wolkig
Di, 24.11. 13:00 9.1° C leicht bewölkt
Di, 24.11. 7:00 6.1° C bewölkt
Di, 24.11. 1:00 3.4° C bewölkt
Mo, 23.11. 19:00 4.1° C wolkig
Mo, 23.11. 13:00 9.4° C leicht bewölkt
Mo, 23.11. 7:00 5.9° C leicht bewölkt
Ortszeit Temperatur Wetter
Mi, 25.11. 3:30 3.9° C wolkig
Mi, 25.11. 3:20 3.9° C wolkig
Mi, 25.11. 3:10 4.1° C wolkig
Mi, 25.11. 3:00 4.1° C wolkig
Mi, 25.11. 2:50 4.1° C wolkig
Mi, 25.11. 2:40 4.1° C wolkig
Mi, 25.11. 2:30 4.0° C wolkig
Mi, 25.11. 2:00 4.2° C bedeckt
Mi, 25.11. 0:00 3.8° C bedeckt
Ortszeit Relative Feuchte Sichtweite
Mi, 25.11. 1:00 84% 45 km
Di, 24.11. 19:00 82% 50 km
Di, 24.11. 13:00 79% 30 km
Di, 24.11. 7:00 90% 26 km
Di, 24.11. 1:00 95% 18 km
Mo, 23.11. 19:00 85% 29 km
Mo, 23.11. 13:00 73% 27 km
Mo, 23.11. 7:00 90% 22 km
Ortszeit Relative Feuchte Sichtweite
Mi, 25.11. 3:30 84% 40 km
Mi, 25.11. 3:20 84% -
Mi, 25.11. 3:10 84% -
Mi, 25.11. 3:00 84% 50 km
Mi, 25.11. 2:50 84% -
Mi, 25.11. 2:40 84% -
Mi, 25.11. 2:30 84% 45 km
Mi, 25.11. 2:00 83% 45 km
Mi, 25.11. 0:00 86% 40 km
Ortszeit Niederschlagsmenge Niederschlagsart
Mi, 25.11. 1:00 0.0 l/m2 in 6 Std. -
Di, 24.11. 19:00 0.0 l/m2 in 12 Std. -
Di, 24.11. 13:00 0.0 l/m2 in 6 Std. -
Di, 24.11. 7:00 0.0 l/m2 in 12 Std. -
Di, 24.11. 1:00 0.0 l/m2 in 6 Std. -
Mo, 23.11. 19:00 0.0 l/m2 in 12 Std. -
Mo, 23.11. 13:00 0.0 l/m2 in 6 Std. -
Mo, 23.11. 7:00 0.1 l/m2 in 12 Std. -
Ortszeit Niederschlagsmenge Niederschlagsart
Mi, 25.11. 3:30 0.0 l/m2 in 1 Std. -
Mi, 25.11. 3:20 keine Meldung -
Mi, 25.11. 3:10 keine Meldung -
Mi, 25.11. 3:00 0.0 l/m2 in 1 Std. -
Mi, 25.11. 2:50 keine Meldung -
Mi, 25.11. 2:40 keine Meldung -
Mi, 25.11. 2:30 0.0 l/m2 in 1 Std. -
Mi, 25.11. 2:00 0.0 l/m2 in 1 Std. -
Mi, 25.11. 0:00 keine Meldung -
Ortszeit Stärke Spitze Richtung
km/h Bft. km/h Grad Sektor
Mi, 25.11. 1:00 9 2 30 140° SO
Di, 24.11. 19:00 14 3 25 180° S
Di, 24.11. 13:00 14 3 29 180° S
Di, 24.11. 7:00 4 1 22 230° SW
Di, 24.11. 1:00 9 2 13 170° S
Mo, 23.11. 19:00 7 2 18 180° S
Mo, 23.11. 13:00 13 3 20 260° W
Mo, 23.11. 7:00 14 3 25 250° W
Ortszeit Stärke Spitze Richtung
km/h Bft. km/h Grad Sektor
Mi, 25.11. 3:30 11 2 22 160° S
Mi, 25.11. 3:20 11 2 - 160° S
Mi, 25.11. 3:10 11 2 - 170° S
Mi, 25.11. 3:00 13 3 30 170° S
Mi, 25.11. 2:50 13 3 - 170° S
Mi, 25.11. 2:40 11 2 - 160° S
Mi, 25.11. 2:30 14 3 29 160° S
Mi, 25.11. 2:00 18 3 25 170° S
Mi, 25.11. 0:00 7 2 29 180° S
Ortszeit Untergrenze Bedeckung Gattung
total tief tief mittel hoch
Mi, 25.11. 1:00 6600 m 8/8 8/8 - - -
Di, 24.11. 19:00 7200 m 8/8 0/8 - - -
Di, 24.11. 13:00 480 m 4/8 4/8 - - -
Di, 24.11. 7:00 810 m 7/8 7/8 - - -
Di, 24.11. 1:00 1140 m 8/8 6/8 - - -
Mo, 23.11. 19:00 6300 m 6/8 5/8 - - -
Mo, 23.11. 13:00 660 m 2/8 2/8 - - -
Mo, 23.11. 7:00 5700 m 2/8 2/8 - - -
Ortszeit Bedeckungsgrad in Achtel und Wolkenuntergrenze
Mi, 25.11. 3:30 7(7200m) 8(9000m) 8(9000m)
Mi, 25.11. 3:20 7(7200m) 8(9000m) 8(9000m)
Mi, 25.11. 3:10 5(7200m) 8(9000m) 8(10500m)
Mi, 25.11. 3:00 4(7500m) 8(9000m) 8(9000m)
Mi, 25.11. 2:50 4(7500m) 8(9000m)
Mi, 25.11. 2:40 7(7500m) 8(8100m) 8(9000m)
Mi, 25.11. 2:30 8(7200m) 8(9000m) 8(9000m)
Mi, 25.11. 2:00 6(6300m) 8(6900m) 8(9000m)
Mi, 25.11. 0:00 8(6900m) 8(9000m)
Ortszeit Luftdruck NN (hPa) Tendenz (hPa in 3 Std.)
Mi, 25.11. 1:00 1019 - 1,2
Di, 24.11. 19:00 1021 - 0,9
Di, 24.11. 13:00 1024 - 1,2
Di, 24.11. 7:00 1026 - 0,7
Di, 24.11. 1:00 1028 - 1,0
Mo, 23.11. 19:00 1029 + 0,2
Mo, 23.11. 13:00 1029 + 0,5
Mo, 23.11. 7:00 1027 + 1,0
Ortszeit Luftdruck NN (hPa) Tendenz (hPa in 3 Std.)
Mi, 25.11. 3:30 1018 - 1,5
Mi, 25.11. 3:20 1018 keine Meldung
Mi, 25.11. 3:10 1018 keine Meldung
Mi, 25.11. 3:00 1019 - 1,5
Mi, 25.11. 2:50 1019 keine Meldung
Mi, 25.11. 2:40 1019 keine Meldung
Mi, 25.11. 2:30 1019 - 1,3
Mi, 25.11. 2:00 1019 - 1,4
Mi, 25.11. 0:00 1020 - 1,0
Ortszeit Schneehöhe (cm)
Mi, 25.11. 1:00 0
Di, 24.11. 19:00 0
Di, 24.11. 13:00 0
Di, 24.11. 7:00 0
Di, 24.11. 1:00 0
Mo, 23.11. 19:00 0
Mo, 23.11. 13:00 0
Mo, 23.11. 7:00 0
Ortszeit Schneehöhe (cm)
Mi, 25.11. 3:30 0
Mi, 25.11. 3:20 0
Mi, 25.11. 3:10 0
Mi, 25.11. 3:00 0
Mi, 25.11. 2:50 0
Mi, 25.11. 2:40 0
Mi, 25.11. 2:30 0
Mi, 25.11. 2:00 0
Mi, 25.11. 0:00 -
Link zu dieser Seite / Seite empfehlen

Das Wetter in ...